sensor_id;sensor_type;location;lat;lon;timestamp;temperature;humidity
25536;DHT22;13431;51.352;6.412;2023-02-15T00:00:07;2.30;99.90
25536;DHT22;13431;51.352;6.412;2023-02-15T00:02:37;2.20;99.90
25536;DHT22;13431;51.352;6.412;2023-02-15T00:05:05;2.20;99.90
25536;DHT22;13431;51.352;6.412;2023-02-15T00:07:33;2.10;99.90
25536;DHT22;13431;51.352;6.412;2023-02-15T00:10:00;2.00;99.90
25536;DHT22;13431;51.352;6.412;2023-02-15T00:12:27;2.00;99.90
25536;DHT22;13431;51.352;6.412;2023-02-15T00:14:55;2.10;99.90
25536;DHT22;13431;51.352;6.412;2023-02-15T00:17:22;2.00;99.90
25536;DHT22;13431;51.352;6.412;2023-02-15T00:19:49;1.90;99.90
25536;DHT22;13431;51.352;6.412;2023-02-15T00:22:16;1.90;99.90
25536;DHT22;13431;51.352;6.412;2023-02-15T00:24:44;1.80;99.90
25536;DHT22;13431;51.352;6.412;2023-02-15T00:27:11;1.80;99.90
25536;DHT22;13431;51.352;6.412;2023-02-15T00:29:39;1.80;99.90
25536;DHT22;13431;51.352;6.412;2023-02-15T00:32:06;1.90;99.90
25536;DHT22;13431;51.352;6.412;2023-02-15T00:34:33;1.80;99.90
25536;DHT22;13431;51.352;6.412;2023-02-15T00:37:01;1.80;99.90
25536;DHT22;13431;51.352;6.412;2023-02-15T00:39:28;1.70;99.90
25536;DHT22;13431;51.352;6.412;2023-02-15T00:41:56;1.80;99.90
25536;DHT22;13431;51.352;6.412;2023-02-15T00:44:23;1.70;99.90
25536;DHT22;13431;51.352;6.412;2023-02-15T00:46:50;1.80;99.90
25536;DHT22;13431;51.352;6.412;2023-02-15T00:49:20;1.70;99.90
25536;DHT22;13431;51.352;6.412;2023-02-15T00:51:47;1.70;99.90
25536;DHT22;13431;51.352;6.412;2023-02-15T00:54:14;1.70;99.90
25536;DHT22;13431;51.352;6.412;2023-02-15T00:56:42;1.70;99.90
25536;DHT22;13431;51.352;6.412;2023-02-15T00:59:09;1.50;99.90
25536;DHT22;13431;51.352;6.412;2023-02-15T01:01:37;1.70;99.90
25536;DHT22;13431;51.352;6.412;2023-02-15T01:04:04;1.70;99.90
25536;DHT22;13431;51.352;6.412;2023-02-15T01:06:32;1.70;99.90
25536;DHT22;13431;51.352;6.412;2023-02-15T01:08:59;1.70;99.90
25536;DHT22;13431;51.352;6.412;2023-02-15T01:11:26;1.60;99.90
25536;DHT22;13431;51.352;6.412;2023-02-15T01:13:56;1.60;99.90
25536;DHT22;13431;51.352;6.412;2023-02-15T01:16:26;1.60;99.90
25536;DHT22;13431;51.352;6.412;2023-02-15T01:18:54;1.60;99.90
25536;DHT22;13431;51.352;6.412;2023-02-15T01:21:24;1.50;99.90
25536;DHT22;13431;51.352;6.412;2023-02-15T01:23:52;1.60;99.90
25536;DHT22;13431;51.352;6.412;2023-02-15T01:26:19;1.60;99.90
25536;DHT22;13431;51.352;6.412;2023-02-15T01:28:47;1.50;99.90
25536;DHT22;13431;51.352;6.412;2023-02-15T01:31:16;1.50;99.90
25536;DHT22;13431;51.352;6.412;2023-02-15T01:33:45;1.50;99.90
25536;DHT22;13431;51.352;6.412;2023-02-15T01:36:13;1.50;99.90
25536;DHT22;13431;51.352;6.412;2023-02-15T01:38:41;1.50;99.90
25536;DHT22;13431;51.352;6.412;2023-02-15T01:41:09;1.50;99.90
25536;DHT22;13431;51.352;6.412;2023-02-15T01:43:56;1.50;99.90
25536;DHT22;13431;51.352;6.412;2023-02-15T01:46:38;1.40;99.90
25536;DHT22;13431;51.352;6.412;2023-02-15T01:49:13;1.40;99.90
25536;DHT22;13431;51.352;6.412;2023-02-15T01:51:43;1.40;99.90
25536;DHT22;13431;51.352;6.412;2023-02-15T01:54:29;1.30;99.90
25536;DHT22;13431;51.352;6.412;2023-02-15T01:57:02;1.20;99.90
25536;DHT22;13431;51.352;6.412;2023-02-15T01:59:31;1.10;99.90
25536;DHT22;13431;51.352;6.412;2023-02-15T02:02:01;1.20;99.90
25536;DHT22;13431;51.352;6.412;2023-02-15T02:04:42;1.10;99.90
25536;DHT22;13431;51.352;6.412;2023-02-15T02:07:14;1.10;99.90
25536;DHT22;13431;51.352;6.412;2023-02-15T02:09:44;1.20;99.90
25536;DHT22;13431;51.352;6.412;2023-02-15T02:12:12;1.20;99.90
25536;DHT22;13431;51.352;6.412;2023-02-15T02:14:40;1.20;99.90
25536;DHT22;13431;51.352;6.412;2023-02-15T02:20:39;1.20;99.90
25536;DHT22;13431;51.352;6.412;2023-02-15T02:26:07;1.20;99.90
25536;DHT22;13431;51.352;6.412;2023-02-15T02:31:59;1.30;99.90
25536;DHT22;13431;51.352;6.412;2023-02-15T02:37:19;1.30;99.90
25536;DHT22;13431;51.352;6.412;2023-02-15T02:42:36;1.30;99.90
25536;DHT22;13431;51.352;6.412;2023-02-15T02:45:13;1.30;99.90
25536;DHT22;13431;51.352;6.412;2023-02-15T02:47:46;1.40;99.90
25536;DHT22;13431;51.352;6.412;2023-02-15T02:50:23;1.30;99.90
25536;DHT22;13431;51.352;6.412;2023-02-15T02:52:53;1.20;99.90
25536;DHT22;13431;51.352;6.412;2023-02-15T02:55:47;1.20;99.90
25536;DHT22;13431;51.352;6.412;2023-02-15T03:05:53;1.20;99.90
25536;DHT22;13431;51.352;6.412;2023-02-15T03:08:25;1.10;99.90
25536;DHT22;13431;51.352;6.412;2023-02-15T03:10:58;1.10;99.90
25536;DHT22;13431;51.352;6.412;2023-02-15T03:13:27;1.00;99.90
25536;DHT22;13431;51.352;6.412;2023-02-15T03:15:55;1.00;99.90
25536;DHT22;13431;51.352;6.412;2023-02-15T03:18:49;1.20;99.90
25536;DHT22;13431;51.352;6.412;2023-02-15T03:21:27;1.10;99.90
25536;DHT22;13431;51.352;6.412;2023-02-15T03:24:04;1.00;99.90
25536;DHT22;13431;51.352;6.412;2023-02-15T03:26:34;0.90;99.90
25536;DHT22;13431;51.352;6.412;2023-02-15T03:29:04;0.90;99.90
25536;DHT22;13431;51.352;6.412;2023-02-15T03:31:35;1.00;99.90
25536;DHT22;13431;51.352;6.412;2023-02-15T03:34:07;1.00;99.90
25536;DHT22;13431;51.352;6.412;2023-02-15T03:42:22;0.90;99.90
25536;DHT22;13431;51.352;6.412;2023-02-15T03:45:09;0.90;99.90
25536;DHT22;13431;51.352;6.412;2023-02-15T03:47:44;0.80;99.90
25536;DHT22;13431;51.352;6.412;2023-02-15T03:50:18;0.90;99.90
25536;DHT22;13431;51.352;6.412;2023-02-15T03:53:07;0.90;99.90
25536;DHT22;13431;51.352;6.412;2023-02-15T03:55:36;0.90;99.90
25536;DHT22;13431;51.352;6.412;2023-02-15T03:58:03;0.90;99.90
25536;DHT22;13431;51.352;6.412;2023-02-15T04:00:58;0.80;99.90
25536;DHT22;13431;51.352;6.412;2023-02-15T04:03:52;0.80;99.90
25536;DHT22;13431;51.352;6.412;2023-02-15T04:06:21;0.80;99.90
25536;DHT22;13431;51.352;6.412;2023-02-15T04:08:48;0.80;99.90
25536;DHT22;13431;51.352;6.412;2023-02-15T04:11:34;0.80;99.90
25536;DHT22;13431;51.352;6.412;2023-02-15T04:14:01;0.80;99.90
25536;DHT22;13431;51.352;6.412;2023-02-15T04:16:49;0.80;99.90
25536;DHT22;13431;51.352;6.412;2023-02-15T04:19:16;0.90;99.90
25536;DHT22;13431;51.352;6.412;2023-02-15T04:22:03;0.80;99.90
25536;DHT22;13431;51.352;6.412;2023-02-15T04:24:48;0.60;99.90
25536;DHT22;13431;51.352;6.412;2023-02-15T04:27:35;0.70;99.90
25536;DHT22;13431;51.352;6.412;2023-02-15T04:30:04;0.80;99.90
25536;DHT22;13431;51.352;6.412;2023-02-15T04:32:33;0.70;99.90
25536;DHT22;13431;51.352;6.412;2023-02-15T04:35:00;0.60;99.90
25536;DHT22;13431;51.352;6.412;2023-02-15T04:37:27;0.60;99.90
25536;DHT22;13431;51.352;6.412;2023-02-15T04:39:55;0.50;99.90
25536;DHT22;13431;51.352;6.412;2023-02-15T04:42:22;0.50;99.90
25536;DHT22;13431;51.352;6.412;2023-02-15T04:44:49;0.70;99.90
25536;DHT22;13431;51.352;6.412;2023-02-15T04:47:17;0.60;99.90
25536;DHT22;13431;51.352;6.412;2023-02-15T04:49:44;0.50;99.90
25536;DHT22;13431;51.352;6.412;2023-02-15T04:52:12;0.50;99.90
25536;DHT22;13431;51.352;6.412;2023-02-15T04:54:39;0.50;99.90
25536;DHT22;13431;51.352;6.412;2023-02-15T04:57:06;0.50;99.90
25536;DHT22;13431;51.352;6.412;2023-02-15T04:59:34;0.50;99.90
25536;DHT22;13431;51.352;6.412;2023-02-15T05:02:01;0.50;99.90
25536;DHT22;13431;51.352;6.412;2023-02-15T05:04:29;0.50;99.90
25536;DHT22;13431;51.352;6.412;2023-02-15T05:06:56;0.60;99.90
25536;DHT22;13431;51.352;6.412;2023-02-15T05:09:23;0.60;99.90
25536;DHT22;13431;51.352;6.412;2023-02-15T05:11:51;0.50;99.90
25536;DHT22;13431;51.352;6.412;2023-02-15T05:14:18;0.60;99.90
25536;DHT22;13431;51.352;6.412;2023-02-15T05:16:45;0.60;99.90
25536;DHT22;13431;51.352;6.412;2023-02-15T05:19:13;0.70;99.90
25536;DHT22;13431;51.352;6.412;2023-02-15T05:21:40;0.60;99.90
25536;DHT22;13431;51.352;6.412;2023-02-15T05:24:07;0.60;99.90
25536;DHT22;13431;51.352;6.412;2023-02-15T05:26:53;0.50;99.90
25536;DHT22;13431;51.352;6.412;2023-02-15T05:29:39;0.40;99.90
25536;DHT22;13431;51.352;6.412;2023-02-15T05:32:06;0.30;99.90
25536;DHT22;13431;51.352;6.412;2023-02-15T05:34:34;0.40;99.90
25536;DHT22;13431;51.352;6.412;2023-02-15T05:37:02;0.40;99.90
25536;DHT22;13431;51.352;6.412;2023-02-15T05:39:29;0.50;99.90
25536;DHT22;13431;51.352;6.412;2023-02-15T05:41:59;0.50;99.90
25536;DHT22;13431;51.352;6.412;2023-02-15T05:44:26;0.50;99.90
25536;DHT22;13431;51.352;6.412;2023-02-15T05:46:54;0.60;99.90
25536;DHT22;13431;51.352;6.412;2023-02-15T05:49:21;0.60;99.90
25536;DHT22;13431;51.352;6.412;2023-02-15T05:51:49;0.60;99.90
25536;DHT22;13431;51.352;6.412;2023-02-15T05:54:16;0.60;99.90
25536;DHT22;13431;51.352;6.412;2023-02-15T05:56:43;0.60;99.90
25536;DHT22;13431;51.352;6.412;2023-02-15T05:59:11;0.60;99.90
25536;DHT22;13431;51.352;6.412;2023-02-15T06:01:39;0.70;99.90
25536;DHT22;13431;51.352;6.412;2023-02-15T06:04:07;0.60;99.90
25536;DHT22;13431;51.352;6.412;2023-02-15T06:06:34;0.60;99.90
25536;DHT22;13431;51.352;6.412;2023-02-15T06:09:02;0.50;99.90
25536;DHT22;13431;51.352;6.412;2023-02-15T06:11:29;0.50;99.90
25536;DHT22;13431;51.352;6.412;2023-02-15T06:13:56;0.50;99.90
25536;DHT22;13431;51.352;6.412;2023-02-15T06:16:24;0.40;99.90
25536;DHT22;13431;51.352;6.412;2023-02-15T06:18:51;0.40;99.90
25536;DHT22;13431;51.352;6.412;2023-02-15T06:21:19;0.50;99.90
25536;DHT22;13431;51.352;6.412;2023-02-15T06:23:47;0.50;99.90
25536;DHT22;13431;51.352;6.412;2023-02-15T06:26:14;0.70;99.90
25536;DHT22;13431;51.352;6.412;2023-02-15T06:28:41;0.60;99.90
25536;DHT22;13431;51.352;6.412;2023-02-15T06:31:09;0.60;99.90
25536;DHT22;13431;51.352;6.412;2023-02-15T06:33:36;0.50;99.90
25536;DHT22;13431;51.352;6.412;2023-02-15T06:36:04;0.60;99.90
25536;DHT22;13431;51.352;6.412;2023-02-15T06:38:31;0.50;99.90
25536;DHT22;13431;51.352;6.412;2023-02-15T06:40:58;0.50;99.90
25536;DHT22;13431;51.352;6.412;2023-02-15T06:43:26;0.50;99.90
25536;DHT22;13431;51.352;6.412;2023-02-15T06:45:55;0.60;99.90
25536;DHT22;13431;51.352;6.412;2023-02-15T06:48:23;0.50;99.90
25536;DHT22;13431;51.352;6.412;2023-02-15T06:50:50;0.50;99.90
25536;DHT22;13431;51.352;6.412;2023-02-15T06:53:17;0.40;99.90
25536;DHT22;13431;51.352;6.412;2023-02-15T06:55:44;0.50;99.90
25536;DHT22;13431;51.352;6.412;2023-02-15T06:58:12;0.50;99.90
25536;DHT22;13431;51.352;6.412;2023-02-15T07:00:39;0.50;99.90
25536;DHT22;13431;51.352;6.412;2023-02-15T07:03:07;0.50;99.90
25536;DHT22;13431;51.352;6.412;2023-02-15T07:05:35;0.50;99.90
25536;DHT22;13431;51.352;6.412;2023-02-15T07:08:02;0.60;99.90
25536;DHT22;13431;51.352;6.412;2023-02-15T07:10:29;0.60;99.90
25536;DHT22;13431;51.352;6.412;2023-02-15T07:12:57;0.60;99.90
25536;DHT22;13431;51.352;6.412;2023-02-15T07:15:24;0.70;99.90
25536;DHT22;13431;51.352;6.412;2023-02-15T07:17:51;0.70;99.90
25536;DHT22;13431;51.352;6.412;2023-02-15T07:20:21;0.70;99.90
25536;DHT22;13431;51.352;6.412;2023-02-15T07:22:50;0.70;99.90
25536;DHT22;13431;51.352;6.412;2023-02-15T07:25:18;0.80;99.90
25536;DHT22;13431;51.352;6.412;2023-02-15T07:27:45;0.90;99.90
25536;DHT22;13431;51.352;6.412;2023-02-15T07:30:15;1.10;99.90
25536;DHT22;13431;51.352;6.412;2023-02-15T07:32:43;1.30;99.90
25536;DHT22;13431;51.352;6.412;2023-02-15T07:35:34;1.60;99.90
25536;DHT22;13431;51.352;6.412;2023-02-15T07:38:01;1.80;99.90
25536;DHT22;13431;51.352;6.412;2023-02-15T07:40:28;1.90;99.90
25536;DHT22;13431;51.352;6.412;2023-02-15T07:42:57;1.90;99.90
25536;DHT22;13431;51.352;6.412;2023-02-15T07:45:26;1.90;99.90
25536;DHT22;13431;51.352;6.412;2023-02-15T07:47:54;2.00;99.90
25536;DHT22;13431;51.352;6.412;2023-02-15T07:50:21;2.10;99.90
25536;DHT22;13431;51.352;6.412;2023-02-15T07:52:48;2.20;99.90
25536;DHT22;13431;51.352;6.412;2023-02-15T07:55:16;2.00;99.90
25536;DHT22;13431;51.352;6.412;2023-02-15T07:57:44;2.50;99.90
25536;DHT22;13431;51.352;6.412;2023-02-15T08:00:13;3.10;99.90
25536;DHT22;13431;51.352;6.412;2023-02-15T08:02:41;3.10;99.90
25536;DHT22;13431;51.352;6.412;2023-02-15T08:05:09;3.10;99.90
25536;DHT22;13431;51.352;6.412;2023-02-15T08:07:36;3.50;99.90
25536;DHT22;13431;51.352;6.412;2023-02-15T08:10:03;3.50;99.90
25536;DHT22;13431;51.352;6.412;2023-02-15T08:12:31;3.50;99.90
25536;DHT22;13431;51.352;6.412;2023-02-15T08:14:58;3.40;99.90
25536;DHT22;13431;51.352;6.412;2023-02-15T08:17:25;3.70;99.90
25536;DHT22;13431;51.352;6.412;2023-02-15T08:19:53;3.90;99.90
25536;DHT22;13431;51.352;6.412;2023-02-15T08:22:20;4.10;99.90
25536;DHT22;13431;51.352;6.412;2023-02-15T08:24:47;5.00;99.90
25536;DHT22;13431;51.352;6.412;2023-02-15T08:27:15;5.70;99.90
25536;DHT22;13431;51.352;6.412;2023-02-15T08:29:42;5.80;99.90
25536;DHT22;13431;51.352;6.412;2023-02-15T08:32:11;5.80;99.90
25536;DHT22;13431;51.352;6.412;2023-02-15T08:34:40;5.70;99.90
25536;DHT22;13431;51.352;6.412;2023-02-15T08:37:08;6.30;99.90
25536;DHT22;13431;51.352;6.412;2023-02-15T08:39:36;6.70;99.90
25536;DHT22;13431;51.352;6.412;2023-02-15T08:42:04;6.70;99.90
25536;DHT22;13431;51.352;6.412;2023-02-15T08:44:31;7.80;99.90
25536;DHT22;13431;51.352;6.412;2023-02-15T08:46:58;8.30;99.90
25536;DHT22;13431;51.352;6.412;2023-02-15T08:49:30;9.30;99.90
25536;DHT22;13431;51.352;6.412;2023-02-15T08:51:58;8.50;99.90
25536;DHT22;13431;51.352;6.412;2023-02-15T08:54:25;8.40;99.90
25536;DHT22;13431;51.352;6.412;2023-02-15T08:56:52;8.60;99.90
25536;DHT22;13431;51.352;6.412;2023-02-15T08:59:22;8.50;99.90
25536;DHT22;13431;51.352;6.412;2023-02-15T09:01:51;8.70;99.90
25536;DHT22;13431;51.352;6.412;2023-02-15T09:04:19;8.90;99.90
25536;DHT22;13431;51.352;6.412;2023-02-15T09:06:48;10.20;99.90
25536;DHT22;13431;51.352;6.412;2023-02-15T09:09:19;10.80;99.90
25536;DHT22;13431;51.352;6.412;2023-02-15T09:11:50;10.30;99.90
25536;DHT22;13431;51.352;6.412;2023-02-15T09:14:26;11.80;99.90
25536;DHT22;13431;51.352;6.412;2023-02-15T09:16:54;11.10;99.90
25536;DHT22;13431;51.352;6.412;2023-02-15T09:19:22;11.00;99.90
25536;DHT22;13431;51.352;6.412;2023-02-15T09:21:50;11.40;99.90
25536;DHT22;13431;51.352;6.412;2023-02-15T09:24:18;11.90;99.90
25536;DHT22;13431;51.352;6.412;2023-02-15T09:26:47;12.20;99.90
25536;DHT22;13431;51.352;6.412;2023-02-15T09:29:16;12.10;99.90
25536;DHT22;13431;51.352;6.412;2023-02-15T09:31:45;13.20;96.50
25536;DHT22;13431;51.352;6.412;2023-02-15T09:34:15;13.20;91.00
25536;DHT22;13431;51.352;6.412;2023-02-15T09:36:44;13.30;81.50
25536;DHT22;13431;51.352;6.412;2023-02-15T09:39:15;12.70;83.40
25536;DHT22;13431;51.352;6.412;2023-02-15T09:47:32;14.50;71.80
25536;DHT22;13431;51.352;6.412;2023-02-15T09:59:00;14.20;70.10
25536;DHT22;13431;51.352;6.412;2023-02-15T10:07:32;13.30;81.10
25536;DHT22;13431;51.352;6.412;2023-02-15T10:10:19;12.70;76.70
25536;DHT22;13431;51.352;6.412;2023-02-15T10:18:38;14.30;73.40
25536;DHT22;13431;51.352;6.412;2023-02-15T10:26:56;14.20;72.90
25536;DHT22;13431;51.352;6.412;2023-02-15T10:29:36;14.40;66.70
25536;DHT22;13431;51.352;6.412;2023-02-15T10:32:25;14.20;67.20
25536;DHT22;13431;51.352;6.412;2023-02-15T10:35:03;14.60;69.00
25536;DHT22;13431;51.352;6.412;2023-02-15T10:51:26;16.30;54.70
25536;DHT22;13431;51.352;6.412;2023-02-15T10:56:52;15.80;57.60
25536;DHT22;13431;51.352;6.412;2023-02-15T10:59:26;16.20;59.10
25536;DHT22;13431;51.352;6.412;2023-02-15T11:07:45;13.30;68.90
25536;DHT22;13431;51.352;6.412;2023-02-15T11:10:28;12.30;99.90
25536;DHT22;13431;51.352;6.412;2023-02-15T11:12:57;11.50;99.90
25536;DHT22;13431;51.352;6.412;2023-02-15T11:15:39;11.00;99.90
25536;DHT22;13431;51.352;6.412;2023-02-15T11:18:25;10.60;99.90
25536;DHT22;13431;51.352;6.412;2023-02-15T11:21:09;10.10;99.90
25536;DHT22;13431;51.352;6.412;2023-02-15T11:23:42;10.00;99.90
25536;DHT22;13431;51.352;6.412;2023-02-15T11:26:32;9.70;99.90
25536;DHT22;13431;51.352;6.412;2023-02-15T11:29:22;9.50;99.90
25536;DHT22;13431;51.352;6.412;2023-02-15T11:32:03;9.30;99.90
25536;DHT22;13431;51.352;6.412;2023-02-15T11:37:48;9.40;99.90
25536;DHT22;13431;51.352;6.412;2023-02-15T11:42:56;9.40;99.90
25536;DHT22;13431;51.352;6.412;2023-02-15T11:45:30;9.30;99.90
25536;DHT22;13431;51.352;6.412;2023-02-15T11:47:58;9.30;99.90
25536;DHT22;13431;51.352;6.412;2023-02-15T11:50:29;9.40;99.90
25536;DHT22;13431;51.352;6.412;2023-02-15T11:53:04;9.40;99.90
25536;DHT22;13431;51.352;6.412;2023-02-15T11:55:32;9.30;99.90
25536;DHT22;13431;51.352;6.412;2023-02-15T11:58:35;9.20;99.90
25536;DHT22;13431;51.352;6.412;2023-02-15T12:01:31;9.40;99.90
25536;DHT22;13431;51.352;6.412;2023-02-15T12:06:53;9.40;99.90
25536;DHT22;13431;51.352;6.412;2023-02-15T12:09:36;9.60;99.90
25536;DHT22;13431;51.352;6.412;2023-02-15T12:14:58;9.50;99.90
25536;DHT22;13431;51.352;6.412;2023-02-15T12:17:31;9.60;99.90
25536;DHT22;13431;51.352;6.412;2023-02-15T12:20:02;9.60;99.90
25536;DHT22;13431;51.352;6.412;2023-02-15T12:22:35;9.60;99.90
25536;DHT22;13431;51.352;6.412;2023-02-15T12:27:52;9.50;99.90
25536;DHT22;13431;51.352;6.412;2023-02-15T12:30:31;9.50;99.90
25536;DHT22;13431;51.352;6.412;2023-02-15T12:36:18;9.60;99.90
25536;DHT22;13431;51.352;6.412;2023-02-15T12:39:26;9.80;99.90
25536;DHT22;13431;51.352;6.412;2023-02-15T12:44:27;9.90;99.90
25536;DHT22;13431;51.352;6.412;2023-02-15T12:47:21;9.90;99.90
25536;DHT22;13431;51.352;6.412;2023-02-15T12:50:09;9.90;99.90
25536;DHT22;13431;51.352;6.412;2023-02-15T12:52:46;10.00;99.90
25536;DHT22;13431;51.352;6.412;2023-02-15T12:57:46;10.20;99.90
25536;DHT22;13431;51.352;6.412;2023-02-15T13:02:53;10.20;99.90
25536;DHT22;13431;51.352;6.412;2023-02-15T13:05:30;10.20;99.90
25536;DHT22;13431;51.352;6.412;2023-02-15T13:08:04;10.20;99.90
25536;DHT22;13431;51.352;6.412;2023-02-15T13:10:41;10.10;99.90
25536;DHT22;13431;51.352;6.412;2023-02-15T13:13:19;10.20;99.90
25536;DHT22;13431;51.352;6.412;2023-02-15T13:15:52;10.20;99.90
25536;DHT22;13431;51.352;6.412;2023-02-15T13:18:37;10.30;99.90
25536;DHT22;13431;51.352;6.412;2023-02-15T13:21:41;10.30;99.90
25536;DHT22;13431;51.352;6.412;2023-02-15T13:24:43;10.40;99.90
25536;DHT22;13431;51.352;6.412;2023-02-15T13:27:24;10.40;99.90
25536;DHT22;13431;51.352;6.412;2023-02-15T13:29:56;10.50;99.90
25536;DHT22;13431;51.352;6.412;2023-02-15T13:32:31;10.50;99.90
25536;DHT22;13431;51.352;6.412;2023-02-15T13:35:01;10.60;99.90
25536;DHT22;13431;51.352;6.412;2023-02-15T13:37:50;10.70;99.90
25536;DHT22;13431;51.352;6.412;2023-02-15T13:40:33;10.70;99.90
25536;DHT22;13431;51.352;6.412;2023-02-15T13:51:41;10.80;99.90
25536;DHT22;13431;51.352;6.412;2023-02-15T13:54:17;10.90;99.90
25536;DHT22;13431;51.352;6.412;2023-02-15T14:02:45;11.10;99.90
25536;DHT22;13431;51.352;6.412;2023-02-15T14:19:29;11.20;99.90
25536;DHT22;13431;51.352;6.412;2023-02-15T14:25:15;11.20;99.90
25536;DHT22;13431;51.352;6.412;2023-02-15T14:30:38;11.20;99.90
25536;DHT22;13431;51.352;6.412;2023-02-15T14:33:08;11.30;99.90
25536;DHT22;13431;51.352;6.412;2023-02-15T14:35:43;11.20;99.90
25536;DHT22;13431;51.352;6.412;2023-02-15T14:41:48;11.30;99.90
25536;DHT22;13431;51.352;6.412;2023-02-15T14:44:30;11.30;99.90
25536;DHT22;13431;51.352;6.412;2023-02-15T14:49:38;11.30;99.90
25536;DHT22;13431;51.352;6.412;2023-02-15T14:52:07;11.30;99.90
25536;DHT22;13431;51.352;6.412;2023-02-15T14:59:45;11.40;99.90
25536;DHT22;13431;51.352;6.412;2023-02-15T15:04:56;11.50;99.90
25536;DHT22;13431;51.352;6.412;2023-02-15T15:07:48;11.50;99.90
25536;DHT22;13431;51.352;6.412;2023-02-15T15:12:48;11.50;99.90
25536;DHT22;13431;51.352;6.412;2023-02-15T15:18:10;11.40;99.90
25536;DHT22;13431;51.352;6.412;2023-02-15T15:20:57;11.40;99.90
25536;DHT22;13431;51.352;6.412;2023-02-15T15:23:40;11.40;99.90
25536;DHT22;13431;51.352;6.412;2023-02-15T15:26:29;11.40;99.90
25536;DHT22;13431;51.352;6.412;2023-02-15T15:28:59;11.30;99.90
25536;DHT22;13431;51.352;6.412;2023-02-15T15:31:42;11.20;99.90
25536;DHT22;13431;51.352;6.412;2023-02-15T15:36:59;11.10;99.90
25536;DHT22;13431;51.352;6.412;2023-02-15T15:45:41;10.60;99.90
25536;DHT22;13431;51.352;6.412;2023-02-15T15:48:36;10.40;99.90
25536;DHT22;13431;51.352;6.412;2023-02-15T15:51:20;10.30;99.90
25536;DHT22;13431;51.352;6.412;2023-02-15T15:53:49;10.20;99.90
25536;DHT22;13431;51.352;6.412;2023-02-15T15:56:29;10.20;99.90
25536;DHT22;13431;51.352;6.412;2023-02-15T15:59:03;10.10;99.90
25536;DHT22;13431;51.352;6.412;2023-02-15T16:01:44;9.90;99.90
25536;DHT22;13431;51.352;6.412;2023-02-15T16:04:14;9.70;99.90
25536;DHT22;13431;51.352;6.412;2023-02-15T16:06:48;9.70;99.90
25536;DHT22;13431;51.352;6.412;2023-02-15T16:09:26;9.50;99.90
25536;DHT22;13431;51.352;6.412;2023-02-15T16:11:58;9.30;99.90
25536;DHT22;13431;51.352;6.412;2023-02-15T16:17:00;9.10;99.90
25536;DHT22;13431;51.352;6.412;2023-02-15T16:19:33;9.00;99.90
25536;DHT22;13431;51.352;6.412;2023-02-15T16:22:03;9.00;99.90
25536;DHT22;13431;51.352;6.412;2023-02-15T16:24:44;8.90;99.90
25536;DHT22;13431;51.352;6.412;2023-02-15T16:27:37;8.80;99.90
25536;DHT22;13431;51.352;6.412;2023-02-15T16:30:24;8.70;99.90
25536;DHT22;13431;51.352;6.412;2023-02-15T16:32:54;8.70;99.90
25536;DHT22;13431;51.352;6.412;2023-02-15T16:35:22;8.70;99.90
25536;DHT22;13431;51.352;6.412;2023-02-15T16:37:50;8.50;99.90
25536;DHT22;13431;51.352;6.412;2023-02-15T16:40:28;8.40;99.90
25536;DHT22;13431;51.352;6.412;2023-02-15T16:43:02;8.30;99.90
25536;DHT22;13431;51.352;6.412;2023-02-15T16:45:32;8.40;99.90
25536;DHT22;13431;51.352;6.412;2023-02-15T16:48:02;8.30;99.90
25536;DHT22;13431;51.352;6.412;2023-02-15T16:50:36;8.20;99.90
25536;DHT22;13431;51.352;6.412;2023-02-15T16:53:06;8.20;99.90
25536;DHT22;13431;51.352;6.412;2023-02-15T16:55:41;8.20;99.90
25536;DHT22;13431;51.352;6.412;2023-02-15T16:58:15;8.20;99.90
25536;DHT22;13431;51.352;6.412;2023-02-15T17:00:43;8.10;99.90
25536;DHT22;13431;51.352;6.412;2023-02-15T17:05:52;8.20;99.90
25536;DHT22;13431;51.352;6.412;2023-02-15T17:13:27;8.00;99.90
25536;DHT22;13431;51.352;6.412;2023-02-15T17:18:38;8.00;99.90
25536;DHT22;13431;51.352;6.412;2023-02-15T17:21:12;8.00;99.90
25536;DHT22;13431;51.352;6.412;2023-02-15T17:23:48;7.90;99.90
25536;DHT22;13431;51.352;6.412;2023-02-15T17:26:20;7.80;99.90
25536;DHT22;13431;51.352;6.412;2023-02-15T17:28:54;7.80;99.90
25536;DHT22;13431;51.352;6.412;2023-02-15T17:31:26;7.70;99.90
25536;DHT22;13431;51.352;6.412;2023-02-15T17:33:56;7.70;99.90
25536;DHT22;13431;51.352;6.412;2023-02-15T17:36:30;7.60;99.90
25536;DHT22;13431;51.352;6.412;2023-02-15T17:41:27;7.40;99.90
25536;DHT22;13431;51.352;6.412;2023-02-15T17:43:55;7.40;99.90
25536;DHT22;13431;51.352;6.412;2023-02-15T17:46:23;7.30;99.90
25536;DHT22;13431;51.352;6.412;2023-02-15T17:48:52;7.30;99.90
25536;DHT22;13431;51.352;6.412;2023-02-15T17:51:21;7.20;99.90
25536;DHT22;13431;51.352;6.412;2023-02-15T17:53:49;7.20;99.90
25536;DHT22;13431;51.352;6.412;2023-02-15T17:56:37;7.10;99.90
25536;DHT22;13431;51.352;6.412;2023-02-15T17:59:05;7.10;99.90
25536;DHT22;13431;51.352;6.412;2023-02-15T18:01:50;7.00;99.90
25536;DHT22;13431;51.352;6.412;2023-02-15T18:04:36;7.00;99.90
25536;DHT22;13431;51.352;6.412;2023-02-15T18:07:22;7.00;99.90
25536;DHT22;13431;51.352;6.412;2023-02-15T18:10:13;7.00;99.90
25536;DHT22;13431;51.352;6.412;2023-02-15T18:12:59;7.00;99.90
25536;DHT22;13431;51.352;6.412;2023-02-15T18:15:27;7.00;99.90
25536;DHT22;13431;51.352;6.412;2023-02-15T18:17:55;7.00;99.90
25536;DHT22;13431;51.352;6.412;2023-02-15T18:20:25;6.90;99.90
25536;DHT22;13431;51.352;6.412;2023-02-15T18:22:54;6.80;99.90
25536;DHT22;13431;51.352;6.412;2023-02-15T18:25:22;6.80;99.90
25536;DHT22;13431;51.352;6.412;2023-02-15T18:27:52;6.80;99.90
25536;DHT22;13431;51.352;6.412;2023-02-15T18:30:23;6.80;99.90
25536;DHT22;13431;51.352;6.412;2023-02-15T18:32:54;6.80;99.90
25536;DHT22;13431;51.352;6.412;2023-02-15T18:35:28;6.70;99.90
25536;DHT22;13431;51.352;6.412;2023-02-15T18:37:58;6.50;99.90
25536;DHT22;13431;51.352;6.412;2023-02-15T18:40:27;6.50;99.90
25536;DHT22;13431;51.352;6.412;2023-02-15T18:42:55;6.40;99.90
25536;DHT22;13431;51.352;6.412;2023-02-15T18:45:25;6.40;99.90
25536;DHT22;13431;51.352;6.412;2023-02-15T18:47:54;6.40;99.90
25536;DHT22;13431;51.352;6.412;2023-02-15T18:50:32;6.30;99.90
25536;DHT22;13431;51.352;6.412;2023-02-15T18:53:02;6.30;99.90
25536;DHT22;13431;51.352;6.412;2023-02-15T18:55:29;6.20;99.90
25536;DHT22;13431;51.352;6.412;2023-02-15T18:58:01;6.20;99.90
25536;DHT22;13431;51.352;6.412;2023-02-15T19:00:33;6.10;99.90
25536;DHT22;13431;51.352;6.412;2023-02-15T19:03:01;6.00;99.90
25536;DHT22;13431;51.352;6.412;2023-02-15T19:05:31;6.00;99.90
25536;DHT22;13431;51.352;6.412;2023-02-15T19:08:00;5.90;99.90
25536;DHT22;13431;51.352;6.412;2023-02-15T19:10:29;5.80;99.90
25536;DHT22;13431;51.352;6.412;2023-02-15T19:12:57;5.80;99.90
25536;DHT22;13431;51.352;6.412;2023-02-15T19:15:27;5.80;99.90
25536;DHT22;13431;51.352;6.412;2023-02-15T19:17:56;5.80;99.90
25536;DHT22;13431;51.352;6.412;2023-02-15T19:20:24;5.70;99.90